Time;durP1;ratioP1;P1;durP2;ratioP2;P2;SDS_P1;SDS_P2;PMS_P1;PMS_P2;Temp;Humidity;BMP_temperature;BMP_pressure;BME280_temperature;BME280_humidity;BME280_pressure;Samples;Min_cycle;Max_cycle;Signal;HPM_P1;HPM_P2
2023/04/21 00:02:20;;;;;;;1999.90;999.90;;;6.30;99.90;;;;;;5031493;28;20527;-71
2023/04/21 00:04:48;;;;;;;1999.90;999.90;;;6.40;99.90;;;;;;5030709;28;20921;-71
2023/04/21 00:07:15;;;;;;;1999.90;999.90;;;6.50;99.90;;;;;;5032079;28;20466;-71
2023/04/21 00:09:42;;;;;;;1999.90;999.90;;;6.50;99.90;;;;;;5031334;28;20916;-71
2023/04/21 00:12:08;;;;;;;1999.90;999.90;;;6.40;99.90;;;;;;5029847;28;20806;-69
2023/04/21 00:14:38;;;;;;;1999.90;999.90;;;6.50;99.90;;;;;;5031417;28;20459;-71
2023/04/21 00:17:05;;;;;;;1999.90;999.90;;;6.40;99.90;;;;;;5031474;28;20778;-71
2023/04/21 00:19:32;;;;;;;1999.90;999.90;;;6.50;99.90;;;;;;5033209;28;20430;-71
2023/04/21 00:22:00;;;;;;;1999.90;999.90;;;6.40;99.90;;;;;;5035422;28;20436;-71
2023/04/21 00:24:26;;;;;;;1999.90;999.90;;;6.40;99.90;;;;;;5031845;28;20843;-71
2023/04/21 00:26:53;;;;;;;1999.90;999.90;;;6.50;99.90;;;;;;5032741;28;20434;-70
2023/04/21 00:29:20;;;;;;;1999.90;999.90;;;6.30;99.90;;;;;;5031386;28;20435;-73
2023/04/21 00:31:48;;;;;;;1999.90;999.90;;;6.10;99.90;;;;;;5033364;28;20441;-72
2023/04/21 00:34:15;;;;;;;1999.90;999.90;;;6.00;99.90;;;;;;5029020;28;20441;-70
2023/04/21 00:36:41;;;;;;;1999.90;999.90;;;6.00;99.90;;;;;;5037800;28;20975;-70
2023/04/21 00:39:08;;;;;;;1999.90;999.90;;;6.00;99.90;;;;;;5030929;28;20431;-71
2023/04/21 00:41:37;;;;;;;1999.90;999.90;;;6.00;99.90;;;;;;5031825;28;20439;-68
2023/04/21 00:44:05;;;;;;;1999.90;999.90;;;6.00;99.90;;;;;;5029903;28;20438;-71
2023/04/21 00:46:32;;;;;;;1999.90;999.90;;;6.00;99.90;;;;;;5035232;28;20936;-71
2023/04/21 00:49:04;;;;;;;1999.90;999.90;;;6.00;99.90;;;;;;5037846;28;20786;-71
2023/04/21 00:51:31;;;;;;;1999.90;999.90;;;6.00;99.90;;;;;;5030594;28;20470;-71
2023/04/21 00:53:59;;;;;;;1999.90;999.90;;;5.80;99.90;;;;;;5029394;28;20912;-71
2023/04/21 00:56:27;;;;;;;1999.90;999.90;;;5.80;99.90;;;;;;5035604;28;20528;-71
2023/04/21 00:58:54;;;;;;;1999.90;999.90;;;5.70;99.90;;;;;;5033725;28;20485;-72
2023/04/21 01:01:21;;;;;;;1999.90;999.90;;;5.70;99.90;;;;;;5024955;28;20436;-73
2023/04/21 01:03:49;;;;;;;1999.90;999.90;;;5.60;99.90;;;;;;5023740;28;20510;-72
2023/04/21 01:06:17;;;;;;;1999.90;999.90;;;5.40;99.90;;;;;;5034301;28;20435;-72
2023/04/21 01:08:46;;;;;;;1999.90;999.90;;;5.40;99.90;;;;;;5035140;28;20438;-73
2023/04/21 01:11:13;;;;;;;1999.90;999.90;;;5.40;99.90;;;;;;5036976;28;20433;-72
2023/04/21 01:13:40;;;;;;;1999.90;999.90;;;5.40;99.90;;;;;;5029723;28;20489;-71
2023/04/21 01:16:07;;;;;;;1999.90;999.90;;;5.10;99.90;;;;;;5031525;28;20445;-66
2023/04/21 01:18:35;;;;;;;1999.90;999.90;;;5.10;99.90;;;;;;5034564;28;20462;-69
2023/04/21 01:21:03;;;;;;;1999.90;999.90;;;5.00;99.90;;;;;;5042564;28;20484;-72
2023/04/21 01:23:31;;;;;;;1999.90;999.90;;;5.00;99.90;;;;;;5038564;28;20806;-67
2023/04/21 01:25:57;;;;;;;1999.90;999.90;;;4.90;99.90;;;;;;5025747;28;20472;-70
2023/04/21 01:28:25;;;;;;;1999.90;999.90;;;5.00;99.90;;;;;;5033256;28;20435;-73
2023/04/21 01:30:52;;;;;;;1999.90;999.90;;;5.10;99.90;;;;;;5040100;28;20809;-71
2023/04/21 01:33:21;;;;;;;1999.90;999.90;;;5.10;99.90;;;;;;5030373;28;20829;-74
2023/04/21 01:35:48;;;;;;;1999.90;999.90;;;5.20;99.90;;;;;;5031629;28;20435;-74
2023/04/21 01:38:17;;;;;;;1999.90;999.90;;;5.20;99.90;;;;;;5032229;28;20457;-72
2023/04/21 01:40:47;;;;;;;1999.90;999.90;;;5.30;99.90;;;;;;5029881;28;20437;-73
2023/04/21 01:43:15;;;;;;;1999.90;999.90;;;5.30;99.90;;;;;;5039655;28;20492;-72
2023/04/21 01:45:42;;;;;;;1999.90;999.90;;;5.30;99.90;;;;;;5035771;28;20431;-73
2023/04/21 01:48:09;;;;;;;1999.90;999.90;;;5.30;99.90;;;;;;5030477;28;20435;-73
2023/04/21 01:50:36;;;;;;;1999.90;999.90;;;5.30;99.90;;;;;;5035550;28;20510;-76
2023/04/21 01:53:02;;;;;;;1999.90;999.90;;;5.20;99.90;;;;;;5034227;28;20434;-73
2023/04/21 01:55:29;;;;;;;1999.90;999.90;;;5.20;99.90;;;;;;5035009;28;20433;-73
2023/04/21 01:57:58;;;;;;;1999.90;999.90;;;5.50;99.90;;;;;;5035788;28;20438;-73
2023/04/21 02:00:25;;;;;;;1999.90;999.90;;;5.30;99.90;;;;;;5031142;28;20430;-73
2023/04/21 02:02:52;;;;;;;1999.90;999.90;;;5.30;99.90;;;;;;5031930;28;20431;-74
2023/04/21 02:05:18;;;;;;;1999.90;999.90;;;5.40;99.90;;;;;;5028464;28;20431;-72
2023/04/21 02:07:45;;;;;;;1999.90;999.90;;;5.40;99.90;;;;;;5035951;28;20856;-70
2023/04/21 02:10:12;;;;;;;1999.90;999.90;;;5.50;99.90;;;;;;5027303;28;20431;-71
2023/04/21 02:12:39;;;;;;;1999.90;999.90;;;5.40;99.90;;;;;;5031393;28;20493;-71
2023/04/21 02:15:08;;;;;;;1999.90;999.90;;;5.40;99.90;;;;;;5034155;28;20866;-69
2023/04/21 02:17:35;;;;;;;1999.90;999.90;;;5.40;99.90;;;;;;5034707;28;20431;-71
2023/04/21 02:20:02;;;;;;;1999.90;999.90;;;5.50;99.90;;;;;;5028574;28;20801;-71
2023/04/21 02:22:29;;;;;;;1999.90;999.90;;;5.60;99.90;;;;;;5028808;28;20431;-73
2023/04/21 02:24:55;;;;;;;1999.90;999.90;;;5.40;99.90;;;;;;5030750;28;20431;-74
2023/04/21 02:27:22;;;;;;;1999.90;999.90;;;5.30;99.90;;;;;;5031275;28;20425;-74
2023/04/21 02:29:49;;;;;;;1999.90;999.90;;;5.30;99.90;;;;;;5035079;28;20453;-71
2023/04/21 02:32:17;;;;;;;1999.90;999.90;;;5.30;99.90;;;;;;5028277;28;20431;-70
2023/04/21 02:34:43;;;;;;;1999.90;999.90;;;5.30;99.90;;;;;;5028964;28;20431;-74
2023/04/21 02:37:10;;;;;;;1999.90;999.90;;;5.20;99.90;;;;;;5028382;28;20439;-73
2023/04/21 02:39:36;;;;;;;1999.90;999.90;;;5.10;99.90;;;;;;5035583;28;20432;-74
2023/04/21 02:42:03;;;;;;;1999.90;999.90;;;5.10;99.90;;;;;;5034501;28;20465;-74
2023/04/21 02:44:30;;;;;;;1999.90;999.90;;;5.30;99.90;;;;;;5028582;28;20460;-71
2023/04/21 02:46:56;;;;;;;1999.90;999.90;;;5.20;99.90;;;;;;5029000;28;20441;-72
2023/04/21 02:49:24;;;;;;;1999.90;999.90;;;5.20;99.90;;;;;;5030497;28;20925;-71
2023/04/21 02:51:51;;;;;;;1999.90;999.90;;;5.20;99.90;;;;;;5034124;28;20417;-71
2023/04/21 02:54:18;;;;;;;1999.90;999.90;;;5.30;99.90;;;;;;5028539;28;20438;-71
2023/04/21 02:56:45;;;;;;;1999.90;999.90;;;5.30;99.90;;;;;;5031235;28;20461;-71
2023/04/21 02:59:15;;;;;;;1999.90;999.90;;;5.30;99.90;;;;;;5027701;28;20462;-70
2023/04/21 03:01:41;;;;;;;1999.90;999.90;;;5.30;99.90;;;;;;5030698;28;20523;-70
2023/04/21 03:04:08;;;;;;;1999.90;999.90;;;5.40;99.90;;;;;;5039174;28;20969;-71
2023/04/21 03:06:36;;;;;;;1999.90;999.90;;;5.30;99.90;;;;;;5029610;28;20461;-72
2023/04/21 03:09:03;;;;;;;1999.90;999.90;;;4.90;99.90;;;;;;5031126;28;20523;-72
2023/04/21 03:11:30;;;;;;;1999.90;999.90;;;4.90;99.90;;;;;;5034936;28;20496;-72
2023/04/21 03:13:56;;;;;;;1999.90;999.90;;;4.80;99.90;;;;;;5033553;28;20431;-73
2023/04/21 03:16:23;;;;;;;1999.90;999.90;;;5.00;99.90;;;;;;5036187;28;20492;-73
2023/04/21 03:18:50;;;;;;;1999.90;999.90;;;5.00;99.90;;;;;;5039803;28;20496;-71
2023/04/21 03:21:16;;;;;;;1999.90;999.90;;;5.00;99.90;;;;;;5032176;28;20431;-71
2023/04/21 03:23:44;;;;;;;1999.90;999.90;;;5.20;99.90;;;;;;5035962;28;20439;-73
2023/04/21 03:26:11;;;;;;;1999.90;999.90;;;5.10;99.90;;;;;;5034934;28;20429;-71
2023/04/21 03:28:38;;;;;;;1999.90;999.90;;;5.20;99.90;;;;;;5036150;28;20446;-73
2023/04/21 03:31:04;;;;;;;1999.90;999.90;;;5.00;99.90;;;;;;5032753;28;20940;-73
2023/04/21 03:33:31;;;;;;;1999.90;999.90;;;5.10;99.90;;;;;;5032383;28;20492;-73
2023/04/21 03:35:58;;;;;;;1999.90;999.90;;;5.00;99.90;;;;;;5031322;28;20438;-70
2023/04/21 03:38:24;;;;;;;1999.90;999.90;;;5.00;99.90;;;;;;5035002;28;20485;-73
2023/04/21 03:40:52;;;;;;;1999.90;999.90;;;4.90;99.90;;;;;;5038264;28;20534;-73
2023/04/21 03:43:19;;;;;;;1999.90;999.90;;;4.90;99.90;;;;;;5040056;28;20497;-72
2023/04/21 03:45:46;;;;;;;1999.90;999.90;;;5.00;99.90;;;;;;5038427;28;20497;-71
2023/04/21 03:48:12;;;;;;;1999.90;999.90;;;5.10;99.90;;;;;;5032005;28;20438;-70
2023/04/21 03:50:39;;;;;;;1999.90;999.90;;;5.00;99.90;;;;;;5033430;28;20485;-71
2023/04/21 03:53:06;;;;;;;1999.90;999.90;;;5.10;99.90;;;;;;5031307;28;20928;-71
2023/04/21 03:55:32;;;;;;;1999.90;999.90;;;5.00;99.90;;;;;;5035425;28;20457;-70
2023/04/21 03:58:00;;;;;;;1999.90;999.90;;;5.00;99.90;;;;;;5031357;28;20435;-70
2023/04/21 04:00:27;;;;;;;1999.90;999.90;;;5.00;99.90;;;;;;5031277;28;20431;-71
2023/04/21 04:02:54;;;;;;;1999.90;999.90;;;5.10;99.90;;;;;;5034049;28;20483;-69
2023/04/21 04:05:20;;;;;;;1999.90;999.90;;;5.10;99.90;;;;;;5034286;28;20430;-71
2023/04/21 04:07:47;;;;;;;1999.90;999.90;;;5.10;99.90;;;;;;5038505;28;20442;-70
2023/04/21 04:10:13;;;;;;;1999.90;999.90;;;4.90;99.90;;;;;;5041586;28;20882;-74
2023/04/21 04:12:40;;;;;;;1999.90;999.90;;;4.90;99.90;;;;;;5031533;28;20916;-72
2023/04/21 04:15:09;;;;;;;1999.90;999.90;;;4.90;99.90;;;;;;5032805;28;20439;-73
2023/04/21 04:17:35;;;;;;;1999.90;999.90;;;4.80;99.90;;;;;;5032983;28;20461;-73
2023/04/21 04:20:03;;;;;;;1999.90;999.90;;;4.90;99.90;;;;;;5037481;28;20438;-73
2023/04/21 04:22:30;;;;;;;1999.90;999.90;;;4.70;99.90;;;;;;5035489;28;20442;-74
2023/04/21 04:24:58;;;;;;;1999.90;999.90;;;4.70;99.90;;;;;;5037220;28;20952;-71
2023/04/21 04:27:25;;;;;;;1999.90;999.90;;;4.80;99.90;;;;;;5030713;28;20441;-73
2023/04/21 04:29:52;;;;;;;1999.90;999.90;;;4.90;99.90;;;;;;5032346;28;20437;-72
2023/04/21 04:32:20;;;;;;;1999.90;999.90;;;5.00;99.90;;;;;;5030815;28;20480;-73
2023/04/21 04:34:47;;;;;;;1999.90;999.90;;;4.90;99.90;;;;;;5035766;28;20449;-72
2023/04/21 04:37:13;;;;;;;1999.90;999.90;;;4.90;99.90;;;;;;5042901;28;20491;-73
2023/04/21 04:39:40;;;;;;;1999.90;999.90;;;5.10;99.90;;;;;;5036668;28;20422;-70
2023/04/21 04:42:08;;;;;;;1999.90;999.90;;;5.10;99.90;;;;;;5029512;28;20435;-73
2023/04/21 04:44:35;;;;;;;1999.90;999.90;;;5.10;99.90;;;;;;5033449;28;20518;-72
2023/04/21 04:47:02;;;;;;;1999.90;999.90;;;5.10;99.90;;;;;;5037911;28;20512;-73
2023/04/21 04:49:30;;;;;;;1999.90;999.90;;;5.00;99.90;;;;;;5031200;28;20485;-72
2023/04/21 04:51:58;;;;;;;1999.90;999.90;;;5.00;99.90;;;;;;5037027;28;20949;-73
2023/04/21 04:54:27;;;;;;;1999.90;999.90;;;5.10;99.90;;;;;;5031474;28;20458;-73
2023/04/21 04:56:54;;;;;;;1999.90;999.90;;;5.10;99.90;;;;;;5033451;28;20536;-73
2023/04/21 04:59:21;;;;;;;1999.90;999.90;;;5.10;99.90;;;;;;5029706;28;20437;-74
2023/04/21 05:01:47;;;;;;;1999.90;999.90;;;5.20;99.90;;;;;;5041091;28;21006;-73
2023/04/21 05:04:15;;;;;;;1999.90;999.90;;;5.20;99.90;;;;;;5030420;28;20446;-72
2023/04/21 05:06:43;;;;;;;1999.90;999.90;;;5.20;99.90;;;;;;5029316;28;20856;-73
2023/04/21 05:09:11;;;;;;;1999.90;999.90;;;5.30;99.90;;;;;;5033715;28;20997;-73
2023/04/21 05:11:37;;;;;;;1999.90;999.90;;;5.50;99.90;;;;;;5032322;28;20426;-72
2023/04/21 05:14:04;;;;;;;1999.90;999.90;;;5.60;99.90;;;;;;5039268;28;20438;-71
2023/04/21 05:16:33;;;;;;;1999.90;999.90;;;5.80;99.90;;;;;;5035990;28;20442;-70
2023/04/21 05:19:01;;;;;;;1999.90;999.90;;;6.10;99.90;;;;;;5037730;28;20447;-71
2023/04/21 05:21:28;;;;;;;1999.90;999.90;;;6.30;99.90;;;;;;5029867;28;20790;-71
2023/04/21 05:23:57;;;;;;;1999.90;999.90;;;6.60;99.90;;;;;;5032624;28;20513;-68
2023/04/21 05:26:23;;;;;;;1999.90;999.90;;;6.80;99.90;;;;;;5033949;28;20433;-68
2023/04/21 05:28:50;;;;;;;1999.90;999.90;;;7.20;99.90;;;;;;5034602;28;20435;-71
2023/04/21 05:31:17;;;;;;;1999.90;999.90;;;7.50;99.90;;;;;;5035406;28;20534;-70
2023/04/21 05:33:44;;;;;;;1999.90;999.90;;;7.60;99.90;;;;;;5028261;28;20434;-72
2023/04/21 05:36:11;;;;;;;1999.90;999.90;;;7.90;99.90;;;;;;5026723;28;20430;-71
2023/04/21 05:38:38;;;;;;;1999.90;999.90;;;8.10;99.90;;;;;;5030448;28;20430;-69
2023/04/21 05:41:06;;;;;;;1999.90;999.90;;;8.20;99.90;;;;;;5038859;28;20427;-71
2023/04/21 05:43:33;;;;;;;1999.90;999.90;;;8.40;99.90;;;;;;5028631;28;20844;-71
2023/04/21 05:46:00;;;;;;;1999.90;999.90;;;8.60;99.90;;;;;;5029059;28;20438;-71
2023/04/21 05:48:27;;;;;;;1999.90;999.90;;;8.80;99.90;;;;;;5030853;28;20490;-71
2023/04/21 05:50:54;;;;;;;1999.90;999.90;;;9.00;99.90;;;;;;5033087;28;20477;-72
2023/04/21 05:53:22;;;;;;;1999.90;999.90;;;9.20;99.90;;;;;;5029437;28;20909;-69
2023/04/21 05:55:49;;;;;;;1999.90;999.90;;;9.30;99.90;;;;;;5036790;28;20447;-71
2023/04/21 05:58:16;;;;;;;1999.90;999.90;;;9.30;99.90;;;;;;5035393;28;20430;-71
2023/04/21 06:00:45;;;;;;;1999.90;999.90;;;9.50;99.90;;;;;;5029706;28;20484;-70
2023/04/21 06:03:11;;;;;;;1999.90;999.90;;;9.60;99.90;;;;;;5030204;28;20809;-71
2023/04/21 06:05:38;;;;;;;1999.90;999.90;;;9.80;99.90;;;;;;5032725;28;20492;-71
2023/04/21 06:08:05;;;;;;;1999.90;999.90;;;9.90;99.90;;;;;;5028906;28;20501;-71
2023/04/21 06:10:31;;;;;;;1999.90;999.90;;;10.00;99.90;;;;;;5029217;28;20434;-69
2023/04/21 06:12:58;;;;;;;1999.90;999.90;;;9.90;99.90;;;;;;5026727;28;20435;-72
2023/04/21 06:15:26;;;;;;;1999.90;999.90;;;10.10;99.90;;;;;;5028409;28;20488;-70
2023/04/21 06:17:53;;;;;;;1999.90;999.90;;;9.90;99.90;;;;;;5027717;28;20489;-72
2023/04/21 06:20:20;;;;;;;1999.90;999.90;;;9.90;99.90;;;;;;5033323;28;20433;-71
2023/04/21 06:22:47;;;;;;;1999.90;999.90;;;9.80;99.90;;;;;;5034528;28;20435;-72
2023/04/21 06:25:13;;;;;;;1999.90;999.90;;;10.00;99.90;;;;;;5029130;28;20438;-72
2023/04/21 06:27:40;;;;;;;1999.90;999.90;;;10.30;99.90;;;;;;5028098;28;20857;-72
2023/04/21 06:30:08;;;;;;;1999.90;999.90;;;10.40;99.90;;;;;;5026520;28;20944;-71
2023/04/21 06:32:36;;;;;;;1999.90;999.90;;;10.40;99.90;;;;;;5025320;28;20848;-72
2023/04/21 06:35:03;;;;;;;1999.90;999.90;;;10.80;99.90;;;;;;5038062;28;20919;-71
2023/04/21 06:37:29;;;;;;;1999.90;999.90;;;10.40;99.90;;;;;;5032371;28;20434;-72
2023/04/21 06:39:56;;;;;;;1999.90;999.90;;;10.70;99.90;;;;;;5028554;28;20500;-70
2023/04/21 06:42:23;;;;;;;1999.90;999.90;;;10.80;99.90;;;;;;5033183;28;20425;-72
2023/04/21 06:44:49;;;;;;;1999.90;999.90;;;10.90;99.90;;;;;;5033274;28;20489;-72
2023/04/21 06:47:16;;;;;;;1999.90;999.90;;;11.10;99.90;;;;;;5029487;28;20912;-72
2023/04/21 06:49:44;;;;;;;1999.90;999.90;;;11.40;99.90;;;;;;5023108;28;20430;-73
2023/04/21 06:52:11;;;;;;;1999.90;999.90;;;11.40;99.90;;;;;;5021352;28;20529;-71
2023/04/21 06:54:38;;;;;;;1999.90;999.90;;;11.40;99.90;;;;;;5025762;28;20848;-72
2023/04/21 06:57:05;;;;;;;1999.90;999.90;;;11.70;99.90;;;;;;5031481;28;20994;-71
2023/04/21 06:59:33;;;;;;;1999.90;999.90;;;11.70;99.90;;;;;;5033155;28;20430;-72
2023/04/21 07:02:00;;;;;;;1999.90;999.90;;;12.00;99.90;;;;;;5038193;28;20422;-72
2023/04/21 07:04:28;;;;;;;1999.90;999.90;;;12.20;99.90;;;;;;5029262;28;20434;-72
2023/04/21 07:06:56;;;;;;;1999.90;999.90;;;11.70;99.90;;;;;;5030125;28;20423;-71
2023/04/21 07:09:23;;;;;;;1999.90;999.90;;;11.70;99.90;;;;;;5030353;28;20426;-72
2023/04/21 07:11:50;;;;;;;1999.90;999.90;;;11.80;99.90;;;;;;5030003;28;20415;-72
2023/04/21 07:14:16;;;;;;;1999.90;999.90;;;12.10;99.90;;;;;;5030231;28;20427;-72
2023/04/21 07:16:43;;;;;;;1999.90;999.90;;;12.10;99.90;;;;;;5029941;28;20423;-72
2023/04/21 07:19:09;;;;;;;1999.90;999.90;;;12.10;99.90;;;;;;5028017;28;20465;-71
2023/04/21 07:21:36;;;;;;;1999.90;999.90;;;12.00;99.90;;;;;;5026234;28;20809;-72
2023/04/21 07:24:05;;;;;;;1999.90;999.90;;;12.10;99.90;;;;;;5032926;28;20860;-72
2023/04/21 07:26:33;;;;;;;1999.90;999.90;;;12.40;99.90;;;;;;5041493;28;20442;-72
2023/04/21 07:28:59;;;;;;;1999.90;999.90;;;12.60;99.90;;;;;;5049804;28;20815;-72
2023/04/21 07:31:26;;;;;;;1999.90;999.90;;;12.50;99.90;;;;;;5049416;28;20464;-72
2023/04/21 07:33:53;;;;;;;1999.90;999.90;;;12.70;99.90;;;;;;5029349;28;20576;-71
2023/04/21 07:36:19;;;;;;;1999.90;999.90;;;12.80;99.90;;;;;;5028972;28;21064;-71
2023/04/21 07:38:46;;;;;;;1999.90;999.90;;;12.80;99.90;;;;;;5030486;28;20424;-71
2023/04/21 07:41:14;;;;;;;1999.90;999.90;;;12.90;99.90;;;;;;5027209;28;20438;-69
2023/04/21 07:43:41;;;;;;;1999.90;999.90;;;13.00;99.90;;;;;;5033284;28;20437;-72
2023/04/21 07:46:08;;;;;;;1999.90;999.90;;;13.10;99.90;;;;;;5027095;28;20672;-72
2023/04/21 07:48:34;;;;;;;1999.90;999.90;;;13.30;99.90;;;;;;5025088;28;20450;-72
2023/04/21 07:51:02;;;;;;;1999.90;999.90;;;13.40;99.90;;;;;;5036108;28;20441;-72
2023/04/21 07:53:29;;;;;;;1999.90;999.90;;;13.30;99.90;;;;;;5043839;28;20421;-72
2023/04/21 07:55:56;;;;;;;1999.90;999.90;;;13.20;99.90;;;;;;5051781;28;20428;-70
2023/04/21 07:58:24;;;;;;;1999.90;999.90;;;13.20;99.90;;;;;;5053928;28;20504;-71
2023/04/21 08:00:51;;;;;;;1999.90;999.90;;;13.40;99.90;;;;;;5054135;28;20468;-71
2023/04/21 08:03:17;;;;;;;1999.90;999.90;;;13.40;99.90;;;;;;5033779;28;20430;-71
2023/04/21 08:05:44;;;;;;;1999.90;999.90;;;13.50;99.90;;;;;;5030903;28;20540;-71
2023/04/21 08:08:11;;;;;;;1999.90;999.90;;;13.50;99.90;;;;;;5035478;28;20429;-70
2023/04/21 08:10:37;;;;;;;1999.90;999.90;;;13.60;99.90;;;;;;5034736;28;20492;-70
2023/04/21 08:13:05;;;;;;;1999.90;999.90;;;13.70;99.90;;;;;;5030056;28;20435;-71
2023/04/21 08:15:33;;;;;;;1999.90;999.90;;;14.00;99.90;;;;;;5033747;28;20453;-70
2023/04/21 08:18:00;;;;;;;1999.90;999.90;;;14.00;99.90;;;;;;5032020;28;20915;-71
2023/04/21 08:20:26;;;;;;;1999.90;999.90;;;13.90;99.90;;;;;;5036205;28;20517;-70
2023/04/21 08:22:53;;;;;;;1999.90;999.90;;;14.10;99.90;;;;;;5029207;28;20837;-71
2023/04/21 08:25:20;;;;;;;1999.90;999.90;;;13.90;99.90;;;;;;5040231;28;20438;-71
2023/04/21 08:27:47;;;;;;;1999.90;999.90;;;14.20;99.90;;;;;;5049513;28;21183;-71
2023/04/21 08:30:14;;;;;;;1999.90;999.90;;;14.20;99.90;;;;;;5053532;28;20953;-71
2023/04/21 08:32:43;;;;;;;1999.90;999.90;;;14.40;99.90;;;;;;5030098;28;20431;-71
2023/04/21 08:35:10;;;;;;;1999.90;999.90;;;14.50;99.90;;;;;;5041523;28;20797;-72
2023/04/21 08:37:39;;;;;;;1999.90;999.90;;;14.50;99.90;;;;;;5031063;28;20672;-71
2023/04/21 08:40:07;;;;;;;1999.90;999.90;;;14.70;99.90;;;;;;5043633;28;20498;-70
2023/04/21 08:42:34;;;;;;;1999.90;999.90;;;14.60;99.90;;;;;;5052855;28;20479;-71
2023/04/21 08:45:01;;;;;;;1999.90;999.90;;;14.70;99.90;;;;;;5050906;28;20419;-71
2023/04/21 08:47:29;;;;;;;1999.90;999.90;;;14.80;99.90;;;;;;5032493;28;20423;-71
2023/04/21 08:49:58;;;;;;;1999.90;999.90;;;14.60;99.90;;;;;;5033394;28;20477;-71
2023/04/21 08:52:25;;;;;;;1999.90;999.90;;;14.80;99.90;;;;;;5036167;28;20846;-71
2023/04/21 08:54:54;;;;;;;1999.90;999.90;;;14.90;99.90;;;;;;5044927;28;20409;-71
2023/04/21 08:57:21;;;;;;;1999.90;999.90;;;14.80;99.90;;;;;;5052866;28;20468;-71
2023/04/21 08:59:47;;;;;;;1999.90;999.90;;;14.90;99.90;;;;;;5050059;28;20447;-70
2023/04/21 09:02:15;;;;;;;1999.90;999.90;;;15.00;99.90;;;;;;5032487;28;20426;-71
2023/04/21 09:04:44;;;;;;;1999.90;999.90;;;15.10;99.90;;;;;;5032730;28;20844;-71
2023/04/21 09:07:12;;;;;;;1999.90;999.90;;;15.50;99.90;;;;;;5032691;28;20939;-71
2023/04/21 09:09:52;;;;;;;1999.90;999.90;;;15.30;99.90;;;;;;5032890;28;20785;-69
2023/04/21 09:12:19;;;;;;;1999.90;999.90;;;15.30;99.90;;;;;;5032933;28;20407;-71
2023/04/21 09:14:46;;;;;;;1999.90;999.90;;;15.40;99.90;;;;;;5031388;28;20503;-71
2023/04/21 09:17:15;;;;;;;1999.90;999.90;;;15.50;99.90;;;;;;5031919;28;20426;-70
2023/04/21 09:19:41;;;;;;;1999.90;999.90;;;15.60;99.90;;;;;;5032577;28;20423;-71
2023/04/21 09:22:08;;;;;;;1999.90;999.90;;;15.60;99.90;;;;;;5032390;28;21011;-71
2023/04/21 09:24:36;;;;;;;1999.90;999.90;;;15.90;99.90;;;;;;5032515;28;20414;-71
2023/04/21 09:27:03;;;;;;;1999.90;999.90;;;15.90;99.90;;;;;;5032582;28;20415;-71
2023/04/21 09:29:30;;;;;;;1999.90;999.90;;;15.80;99.90;;;;;;5031200;28;20457;-71
2023/04/21 09:31:57;;;;;;;1999.90;999.90;;;16.00;99.90;;;;;;5032370;28;20510;-71
2023/04/21 09:34:25;;;;;;;1999.90;999.90;;;16.20;99.90;;;;;;5032650;28;20411;-71
2023/04/21 09:37:00;;;;;;;1999.90;999.90;;;16.10;99.90;;;;;;5032126;28;20836;-71
2023/04/21 09:39:27;;;;;;;1999.90;999.90;;;16.20;99.90;;;;;;5032276;28;20915;-71
2023/04/21 09:41:56;;;;;;;1999.90;999.90;;;16.20;99.90;;;;;;5031853;28;20514;-71
2023/04/21 09:44:23;;;;;;;1999.90;999.90;;;16.20;99.90;;;;;;5031259;28;20438;-70
2023/04/21 09:46:50;;;;;;;1999.90;999.90;;;16.20;99.90;;;;;;5032073;28;20453;-71
2023/04/21 09:49:18;;;;;;;1999.90;999.90;;;16.20;99.90;;;;;;5031299;28;20868;-71
2023/04/21 09:51:45;;;;;;;1999.90;999.90;;;16.30;99.90;;;;;;5031224;28;20423;-71
2023/04/21 09:54:16;;;;;;;1999.90;999.90;;;16.40;99.90;;;;;;5031448;28;20423;-70
2023/04/21 09:56:44;;;;;;;1999.90;999.90;;;16.70;99.90;;;;;;5028633;28;20856;-71
2023/04/21 09:59:17;;;;;;;1999.90;999.90;;;16.80;99.90;;;;;;5031445;28;20477;-69
2023/04/21 10:01:48;;;;;;;1999.90;999.90;;;16.80;99.90;;;;;;5029784;28;20485;-70
2023/04/21 10:04:15;;;;;;;1999.90;999.90;;;16.90;99.90;;;;;;5031740;28;20419;-71
2023/04/21 10:06:45;;;;;;;1999.90;999.90;;;17.00;99.90;;;;;;5030997;28;22382;-71
2023/04/21 10:09:12;;;;;;;1999.90;999.90;;;17.20;99.90;;;;;;5030928;28;20518;-71
2023/04/21 10:11:40;;;;;;;1999.90;999.90;;;17.50;99.90;;;;;;5031768;28;20414;-70
2023/04/21 10:14:08;;;;;;;1999.90;999.90;;;17.60;99.90;;;;;;5031799;28;20422;-71
2023/04/21 10:16:37;;;;;;;1999.90;999.90;;;17.50;99.90;;;;;;5030058;28;20497;-70
2023/04/21 10:19:23;;;;;;;1999.90;999.90;;;17.40;99.90;;;;;;5030850;28;20501;-70
2023/04/21 10:21:49;;;;;;;1999.90;999.90;;;17.50;99.90;;;;;;5031054;28;20407;-70
2023/04/21 10:24:16;;;;;;;1999.90;999.90;;;17.80;99.90;;;;;;5027986;28;20488;-69
2023/04/21 10:26:43;;;;;;;1999.90;999.90;;;17.70;99.90;;;;;;5029696;28;20979;-71
2023/04/21 10:29:10;;;;;;;1999.90;999.90;;;17.70;99.90;;;;;;5028793;28;20852;-71
2023/04/21 10:31:50;;;;;;;1999.90;999.90;;;17.60;99.90;;;;;;5029722;28;20466;-71
2023/04/21 10:34:22;;;;;;;1999.90;999.90;;;17.80;99.90;;;;;;5033280;28;20488;-69
2023/04/21 10:37:07;;;;;;;1999.90;999.90;;;17.90;99.90;;;;;;5028769;28;20488;-69
2023/04/21 10:39:35;;;;;;;1999.90;999.90;;;17.90;99.90;;;;;;5029159;28;20439;-70
2023/04/21 10:42:27;;;;;;;1999.90;999.90;;;17.90;99.90;;;;;;5030111;28;20488;-71
2023/04/21 10:45:10;;;;;;;1999.90;999.90;;;17.80;99.90;;;;;;5032085;28;20434;-72
2023/04/21 10:47:41;;;;;;;1999.90;999.90;;;17.80;99.90;;;;;;5024957;28;20513;-71
2023/04/21 10:50:17;;;;;;;1999.90;999.90;;;17.90;99.90;;;;;;5035447;28;20440;-72
2023/04/21 10:52:45;;;;;;;1999.90;999.90;;;17.90;99.90;;;;;;5025405;28;20427;-73
2023/04/21 10:55:14;;;;;;;1999.90;999.90;;;17.90;99.90;;;;;;5024880;28;20442;-72
2023/04/21 10:57:43;;;;;;;1999.90;999.90;;;17.80;99.90;;;;;;5029059;28;20439;-72
2023/04/21 11:00:14;;;;;;;1999.90;999.90;;;17.90;99.90;;;;;;5028133;28;20489;-72
2023/04/21 11:02:42;;;;;;;1999.90;999.90;;;18.20;99.90;;;;;;5028830;28;20502;-72
2023/04/21 11:05:10;;;;;;;1999.90;999.90;;;18.10;99.90;;;;;;5027959;28;20493;-72
2023/04/21 11:07:36;;;;;;;1999.90;999.90;;;18.30;99.90;;;;;;5026666;28;20515;-72
2023/04/21 11:10:05;;;;;;;1999.90;999.90;;;18.30;99.90;;;;;;5028379;28;20476;-70
2023/04/21 11:12:33;;;;;;;1999.90;999.90;;;18.30;99.90;;;;;;5036696;28;20407;-69
2023/04/21 11:15:04;;;;;;;1999.90;999.90;;;18.40;99.90;;;;;;5029649;28;20439;-71
2023/04/21 11:17:31;;;;;;;1999.90;999.90;;;18.50;99.90;;;;;;5036314;28;20550;-72
2023/04/21 11:20:01;;;;;;;1999.90;999.90;;;18.50;99.90;;;;;;5026958;28;20439;-72
2023/04/21 11:22:28;;;;;;;1999.90;999.90;;;18.60;99.90;;;;;;5027577;28;20430;-71
2023/04/21 11:24:56;;;;;;;1999.90;999.90;;;18.70;99.90;;;;;;5027670;28;20516;-72
2023/04/21 11:27:25;;;;;;;1999.90;999.90;;;18.80;99.90;;;;;;5032880;28;20438;-72
2023/04/21 11:29:52;;;;;;;1999.90;999.90;;;18.70;99.90;;;;;;5028969;28;20438;-73
2023/04/21 11:32:19;;;;;;;1999.90;999.90;;;18.90;99.70;;;;;;5033245;28;20872;-73
2023/04/21 11:34:46;;;;;;;1999.90;999.90;;;18.60;99.90;;;;;;5034313;28;20419;-73
2023/04/21 11:37:20;;;;;;;1999.90;999.90;;;18.50;99.90;;;;;;5034573;28;20418;-73
2023/04/21 11:39:47;;;;;;;1999.90;999.90;;;18.70;99.90;;;;;;5034446;28;20414;-73
2023/04/21 11:42:21;;;;;;;1999.90;999.90;;;18.80;99.30;;;;;;5034147;28;20426;-73
2023/04/21 11:44:48;;;;;;;1999.90;999.90;;;18.60;99.90;;;;;;5034040;28;20510;-74
2023/04/21 11:47:16;;;;;;;1999.90;999.90;;;18.90;99.90;;;;;;5033621;28;20435;-73
2023/04/21 11:49:47;;;;;;;1999.90;999.90;;;19.10;99.90;;;;;;5034386;28;20423;-73
2023/04/21 11:52:26;;;;;;;1999.90;999.90;;;19.30;99.90;;;;;;5034153;28;20414;-73
2023/04/21 11:54:58;;;;;;;1999.90;999.90;;;19.10;97.20;;;;;;5034652;28;20465;-73
2023/04/21 11:57:25;;;;;;;1999.90;999.90;;;19.10;97.30;;;;;;5033949;28;20415;-73
2023/04/21 11:59:52;;;;;;;1999.90;999.90;;;19.00;97.50;;;;;;5031693;28;20510;-73
2023/04/21 12:02:24;;;;;;;1999.90;999.90;;;18.90;96.80;;;;;;5041232;28;20438;-73
2023/04/21 12:04:58;;;;;;;1999.90;999.90;;;19.10;96.00;;;;;;5033852;28;20859;-73
2023/04/21 12:07:27;;;;;;;1999.90;999.90;;;19.30;96.30;;;;;;5034191;28;20419;-73